Time;durP1;ratioP1;P1;durP2;ratioP2;P2;SDS_P1;SDS_P2;PMS_P1;PMS_P2;Temp;Humidity;BMP_temperature;BMP_pressure;BME280_temperature;BME280_humidity;BME280_pressure;Samples;Min_cycle;Max_cycle;Signal;HPM_P1;HPM_P2
2022/04/07 00:00:22;;;;;;;19.23;2.90;;;;;;;12.25;67.56;99088.91;4964873;28;20494;-59
2022/04/07 00:02:47;;;;;;;15.65;3.00;;;;;;;12.40;66.98;99099.00;4954354;28;20042;-59
2022/04/07 00:05:13;;;;;;;16.65;3.03;;;;;;;12.30;67.16;99084.44;4955015;28;20118;-59
2022/04/07 00:07:38;;;;;;;15.02;2.67;;;;;;;12.35;66.86;99077.34;4954675;28;20671;-59
2022/04/07 00:10:04;;;;;;;15.55;2.90;;;;;;;12.40;66.19;99072.88;4943368;28;20129;-59
2022/04/07 00:12:32;;;;;;;16.35;3.00;;;;;;;12.60;65.39;99079.38;4957304;28;20074;-58
2022/04/07 00:14:59;;;;;;;16.48;2.70;;;;;;;12.56;65.46;99074.28;4953104;28;20050;-58
2022/04/07 00:17:25;;;;;;;16.38;3.15;;;;;;;12.53;65.49;99069.09;4956653;28;20050;-59
2022/04/07 00:19:51;;;;;;;15.57;2.67;;;;;;;12.68;64.88;99073.13;4954434;28;20050;-59
2022/04/07 00:22:20;;;;;;;16.33;2.78;;;;;;;12.63;64.70;99051.44;4949236;28;20112;-59
2022/04/07 00:24:45;;;;;;;14.15;2.42;;;;;;;12.57;65.18;99057.66;4954299;28;20054;-59
2022/04/07 00:27:11;;;;;;;15.52;2.90;;;;;;;12.66;64.55;99057.47;4951053;28;20058;-59
2022/04/07 00:29:36;;;;;;;13.40;2.90;;;;;;;12.69;64.51;99043.44;4954613;28;20042;-59
2022/04/07 00:32:05;;;;;;;14.52;3.15;;;;;;;12.70;64.61;99050.38;4946636;28;20054;-61
2022/04/07 00:34:31;;;;;;;16.73;3.53;;;;;;;12.82;64.09;99055.31;4952548;28;20641;-59
2022/04/07 00:36:57;;;;;;;15.55;2.70;;;;;;;12.75;64.36;99035.44;4958437;28;20229;-60
2022/04/07 00:39:22;;;;;;;20.83;3.38;;;;;;;12.85;64.00;99022.13;4949069;28;20069;-58
2022/04/07 00:41:48;;;;;;;18.20;3.30;;;;;;;12.79;64.17;99024.03;4953672;28;20049;-60
2022/04/07 00:44:14;;;;;;;18.38;2.90;;;;;;;12.77;63.96;99021.44;4948832;28;20518;-60
2022/04/07 00:46:40;;;;;;;13.27;2.85;;;;;;;12.86;63.40;99016.00;4954452;28;20663;-59
2022/04/07 00:49:07;;;;;;;18.58;3.42;;;;;;;12.76;63.73;98992.72;4951869;28;20050;-59
2022/04/07 00:51:33;;;;;;;19.65;3.03;;;;;;;12.82;63.44;99005.63;4961921;28;20070;-59
2022/04/07 00:54:00;;;;;;;19.42;2.92;;;;;;;12.55;63.57;99000.22;4948450;28;20299;-58
2022/04/07 00:56:26;;;;;;;19.15;2.90;;;;;;;12.58;63.64;98988.81;4955430;28;20038;-60
2022/04/07 00:58:53;;;;;;;15.95;3.00;;;;;;;12.65;63.60;98982.53;4955324;28;20034;-58
2022/04/07 01:01:22;;;;;;;14.95;2.58;;;;;;;12.82;63.33;98982.97;4951208;28;20050;-60
2022/04/07 01:03:49;;;;;;;18.83;3.17;;;;;;;12.65;64.15;98984.28;4954000;28;20046;-59
2022/04/07 01:06:15;;;;;;;13.55;2.53;;;;;;;12.83;63.53;98984.69;4935065;28;20268;-59
2022/04/07 01:08:40;;;;;;;20.92;3.30;;;;;;;12.74;63.67;98964.03;4953809;28;20619;-59
2022/04/07 01:11:06;;;;;;;16.50;2.97;;;;;;;12.73;64.22;98961.44;4953982;28;20200;-59
2022/04/07 01:13:49;;;;;;;24.00;3.35;;;;;;;12.91;63.95;98959.19;4951450;28;20383;-58
2022/04/07 01:16:15;;;;;;;19.42;3.03;;;;;;;12.82;65.27;98969.03;4945614;28;20359;-59
2022/04/07 01:18:41;;;;;;;19.50;3.38;;;;;;;12.63;66.98;98944.25;4941107;28;20188;-61
2022/04/07 01:21:09;;;;;;;19.60;3.35;;;;;;;12.48;67.95;98948.13;4966410;28;20718;-59
2022/04/07 01:23:38;;;;;;;16.35;3.22;;;;;;;12.44;67.75;98936.88;4951560;28;20034;-59
2022/04/07 01:26:04;;;;;;;20.77;3.47;;;;;;;12.29;68.70;98926.81;4947301;28;20022;-60
2022/04/07 01:28:31;;;;;;;24.13;3.40;;;;;;;12.17;69.40;98937.56;4937100;28;20256;-63
2022/04/07 01:30:57;;;;;;;22.90;3.65;;;;;;;12.25;69.24;98927.78;4953285;28;20089;-60
2022/04/07 01:33:23;;;;;;;22.60;3.42;;;;;;;12.27;68.93;98905.09;4955417;28;20125;-59
2022/04/07 01:35:49;;;;;;;18.48;3.33;;;;;;;12.17;69.44;98901.00;4955893;28;20467;-60
2022/04/07 01:38:16;;;;;;;22.48;3.45;;;;;;;12.09;69.36;98902.91;4943298;28;20489;-59
2022/04/07 01:40:41;;;;;;;18.35;3.63;;;;;;;12.21;68.96;98892.16;4951684;28;20448;-60
2022/04/07 01:43:09;;;;;;;23.33;3.28;;;;;;;12.09;69.73;98880.28;4955738;28;20133;-59
2022/04/07 01:45:35;;;;;;;19.75;3.67;;;;;;;12.10;69.47;98866.31;4949323;28;20144;-58
2022/04/07 01:48:02;;;;;;;24.50;3.75;;;;;;;12.01;70.57;98883.97;4942995;28;20052;-60
2022/04/07 01:50:29;;;;;;;29.90;3.78;;;;;;;12.02;70.39;98880.44;4969910;28;20181;-59
2022/04/07 01:52:56;;;;;;;21.63;4.00;;;;;;;11.89;70.97;98860.78;4945701;28;20124;-59
2022/04/07 01:55:23;;;;;;;25.33;3.55;;;;;;;11.98;71.08;98863.16;4945430;28;20473;-59
2022/04/07 01:57:49;;;;;;;28.55;3.97;;;;;;;11.89;70.85;98868.59;4948264;28;20502;-60
2022/04/07 02:00:15;;;;;;;33.00;4.55;;;;;;;11.82;71.12;98859.19;4944204;28;21006;-60
2022/04/07 02:02:41;;;;;;;24.85;3.72;;;;;;;11.89;70.61;98850.34;4949993;28;20053;-59
2022/04/07 02:05:09;;;;;;;22.48;3.72;;;;;;;11.91;70.03;98859.81;4967354;28;20592;-60
2022/04/07 02:07:36;;;;;;;22.73;4.00;;;;;;;11.97;69.87;98864.03;4954317;28;20050;-59
2022/04/07 02:10:03;;;;;;;29.83;4.03;;;;;;;12.06;69.31;98851.63;4943924;28;20124;-59
2022/04/07 02:12:29;;;;;;;20.08;3.40;;;;;;;12.14;68.86;98860.13;4947460;28;20514;-59
2022/04/07 02:14:59;;;;;;;27.40;4.10;;;;;;;11.97;69.22;98851.84;4953399;28;20038;-59
2022/04/07 02:17:25;;;;;;;31.80;3.97;;;;;;;11.95;68.78;98832.75;4968547;28;20043;-59
2022/04/07 02:19:51;;;;;;;25.10;3.92;;;;;;;12.05;68.40;98849.91;4952028;28;20045;-59
2022/04/07 02:22:19;;;;;;;25.55;3.70;;;;;;;12.17;67.98;98825.22;4942178;28;22441;-59
2022/04/07 02:24:44;;;;;;;26.58;3.90;;;;;;;12.21;67.67;98826.84;4954913;28;20057;-60
2022/04/07 02:27:10;;;;;;;32.92;4.25;;;;;;;12.21;67.36;98826.84;4955596;28;20156;-59
2022/04/07 02:29:35;;;;;;;28.50;4.05;;;;;;;12.23;67.02;98822.47;4952814;28;20433;-60
2022/04/07 02:32:01;;;;;;;29.95;4.70;;;;;;;12.30;66.91;98817.94;4947248;28;20045;-60
2022/04/07 02:34:26;;;;;;;24.35;3.60;;;;;;;12.19;67.02;98815.63;4945311;28;20085;-59
2022/04/07 02:36:51;;;;;;;23.45;4.00;;;;;;;12.18;66.81;98804.31;4948586;28;20433;-60
2022/04/07 02:39:17;;;;;;;24.17;3.65;;;;;;;12.31;66.70;98811.81;4953021;28;20421;-59
2022/04/07 02:41:42;;;;;;;27.10;4.00;;;;;;;12.27;66.51;98799.72;4949189;28;20046;-60
2022/04/07 02:44:07;;;;;;;24.85;3.97;;;;;;;12.06;67.20;98788.94;4945102;28;20046;-59
2022/04/07 02:46:33;;;;;;;29.50;4.43;;;;;;;12.26;66.48;98780.56;4951971;28;20050;-59
2022/04/07 02:48:58;;;;;;;33.88;3.97;;;;;;;12.42;66.27;98770.56;4953933;28;20046;-59
2022/04/07 02:51:24;;;;;;;23.25;3.60;;;;;;;12.32;66.26;98769.94;4947572;28;20038;-58
2022/04/07 02:53:51;;;;;;;26.15;4.32;;;;;;;12.42;66.19;98762.72;4956572;28;20520;-59
2022/04/07 02:56:16;;;;;;;25.90;4.03;;;;;;;12.36;66.23;98775.97;4940060;28;20070;-59
2022/04/07 02:58:42;;;;;;;30.42;4.07;;;;;;;12.45;65.64;98749.56;4957596;28;20137;-60
2022/04/07 03:01:14;;;;;;;22.45;3.70;;;;;;;12.31;66.15;98743.88;4952725;28;20089;-60
2022/04/07 03:03:39;;;;;;;24.13;4.20;;;;;;;12.46;65.16;98740.84;4953116;28;20039;-60
2022/04/07 03:06:05;;;;;;;21.15;3.70;;;;;;;12.05;66.85;98723.69;4960814;28;20113;-59
2022/04/07 03:08:32;;;;;;;22.50;3.53;;;;;;;12.25;65.98;98721.41;4949102;28;20120;-60
2022/04/07 03:10:58;;;;;;;26.40;4.15;;;;;;;12.19;65.68;98721.56;4949106;28;20459;-58
2022/04/07 03:13:24;;;;;;;25.33;3.47;;;;;;;12.27;65.76;98726.56;4957736;28;20450;-60
2022/04/07 03:15:52;;;;;;;28.00;3.80;;;;;;;12.38;65.47;98714.91;4953796;28;20030;-60
2022/04/07 03:18:18;;;;;;;23.10;3.60;;;;;;;12.37;65.50;98694.06;4930105;28;20213;-59
2022/04/07 03:20:43;;;;;;;25.38;3.80;;;;;;;12.30;65.97;98690.78;4961388;28;20046;-58
2022/04/07 03:23:09;;;;;;;26.45;4.20;;;;;;;12.20;66.17;98684.94;4959866;28;20549;-59
2022/04/07 03:25:34;;;;;;;22.63;3.53;;;;;;;12.16;66.68;98672.88;4952773;28;20043;-59
2022/04/07 03:28:00;;;;;;;25.20;3.58;;;;;;;12.39;66.13;98666.97;4947229;28;20635;-59
2022/04/07 03:30:25;;;;;;;16.88;2.97;;;;;;;12.39;66.23;98671.34;4959115;28;20065;-59
2022/04/07 03:32:50;;;;;;;22.02;3.67;;;;;;;12.23;67.19;98652.66;4954532;28;20120;-58
2022/04/07 03:35:16;;;;;;;20.08;3.58;;;;;;;12.34;67.32;98647.13;4955578;28;20642;-59
2022/04/07 03:37:41;;;;;;;21.35;3.13;;;;;;;12.25;68.06;98631.72;4955585;28;20046;-60
2022/04/07 03:40:08;;;;;;;24.25;3.72;;;;;;;12.06;68.99;98627.03;4950134;28;20645;-60
2022/04/07 03:42:33;;;;;;;28.08;3.65;;;;;;;11.92;69.46;98623.06;4950289;28;20058;-60
2022/04/07 03:45:03;;;;;;;25.42;3.60;;;;;;;11.86;69.77;98607.59;4949665;28;20054;-59
2022/04/07 03:47:30;;;;;;;21.38;3.28;;;;;;;11.90;69.94;98599.63;4954775;28;20108;-60
2022/04/07 03:49:55;;;;;;;20.40;3.13;;;;;;;11.84;69.57;98572.81;4950425;28;20058;-57
2022/04/07 03:52:20;;;;;;;12.95;2.85;;;;;;;11.77;70.30;98577.38;4944076;28;20597;-58
2022/04/07 03:54:46;;;;;;;19.63;3.30;;;;;;;11.86;69.59;98551.00;4954483;28;20408;-60
2022/04/07 03:57:11;;;;;;;22.50;3.28;;;;;;;11.83;69.65;98560.69;4946117;28;21154;-60
2022/04/07 03:59:38;;;;;;;20.33;2.88;;;;;;;11.81;69.34;98549.44;4951462;28;20465;-60
2022/04/07 04:02:06;;;;;;;20.67;3.20;;;;;;;11.76;69.12;98526.06;4949702;28;20054;-60
2022/04/07 04:04:32;;;;;;;17.23;2.70;;;;;;;11.97;68.35;98540.25;4952244;28;20057;-59
2022/04/07 04:06:57;;;;;;;17.08;2.67;;;;;;;11.89;68.57;98527.44;4954465;28;20667;-58
2022/04/07 04:09:23;;;;;;;15.57;2.70;;;;;;;11.76;68.72;98505.19;4956289;28;21097;-59
2022/04/07 04:11:48;;;;;;;14.20;2.95;;;;;;;11.87;69.08;98512.69;4944468;28;20057;-60
2022/04/07 04:14:13;;;;;;;21.15;3.03;;;;;;;11.91;69.05;98496.03;4947664;28;20534;-59
2022/04/07 04:16:39;;;;;;;19.48;3.00;;;;;;;11.69;69.67;98503.63;4977455;28;20050;-58
2022/04/07 04:19:04;;;;;;;20.73;3.05;;;;;;;11.76;69.45;98493.00;4952349;28;20058;-59
2022/04/07 04:21:30;;;;;;;15.52;2.60;;;;;;;11.77;69.32;98478.19;4951116;28;20795;-59
2022/04/07 04:23:55;;;;;;;16.30;2.47;;;;;;;11.70;69.40;98474.00;4950813;28;20050;-58
2022/04/07 04:26:21;;;;;;;19.63;2.72;;;;;;;11.79;69.58;98465.94;4928484;28;20770;-60
2022/04/07 04:28:46;;;;;;;15.20;3.00;;;;;;;11.58;70.43;98436.09;4959278;28;20417;-59
2022/04/07 04:31:11;;;;;;;18.38;2.85;;;;;;;11.72;69.81;98446.94;4948335;28;20406;-60
2022/04/07 04:33:37;;;;;;;12.32;2.60;;;;;;;11.60;70.19;98442.09;4953939;28;20585;-59
2022/04/07 04:36:03;;;;;;;14.13;2.50;;;;;;;11.71;69.84;98447.03;4947409;28;20130;-61
2022/04/07 04:38:29;;;;;;;14.57;2.17;;;;;;;11.63;70.14;98428.97;4960621;28;20070;-59
2022/04/07 04:40:54;;;;;;;18.85;2.40;;;;;;;11.62;70.73;98431.63;4955758;28;20041;-58
2022/04/07 04:43:19;;;;;;;13.32;2.20;;;;;;;11.61;70.82;98430.75;4952604;28;20254;-58
2022/04/07 04:45:45;;;;;;;16.27;2.50;;;;;;;11.61;70.86;98404.66;4955657;28;20038;-59
2022/04/07 04:48:10;;;;;;;12.23;2.40;;;;;;;11.62;70.85;98419.44;4937076;28;20489;-61
2022/04/07 04:50:36;;;;;;;14.85;2.05;;;;;;;11.58;70.81;98407.38;4951173;28;20051;-59
2022/04/07 04:53:01;;;;;;;10.77;2.10;;;;;;;11.62;70.77;98397.69;4945873;28;20065;-58
2022/04/07 04:55:26;;;;;;;10.30;2.13;;;;;;;11.40;71.88;98389.66;4953443;28;20046;-59
2022/04/07 04:57:52;;;;;;;10.38;2.50;;;;;;;11.51;71.24;98384.13;4955552;28;20070;-58
2022/04/07 05:00:18;;;;;;;10.73;2.13;;;;;;;11.44;71.66;98375.63;4948856;28;21186;-59
2022/04/07 05:02:44;;;;;;;12.38;2.30;;;;;;;11.39;71.94;98369.69;4954862;28;20621;-59
2022/04/07 05:05:09;;;;;;;14.10;2.90;;;;;;;11.51;71.56;98365.84;4948942;28;20097;-60
2022/04/07 05:07:35;;;;;;;10.85;2.42;;;;;;;11.46;71.97;98380.81;4959265;28;20057;-60
2022/04/07 05:10:02;;;;;;;12.35;2.72;;;;;;;11.45;72.08;98389.53;4939104;28;20046;-59
2022/04/07 05:12:28;;;;;;;9.23;2.15;;;;;;;11.34;72.65;98405.50;4957281;28;20445;-59
2022/04/07 05:14:53;;;;;;;9.63;2.10;;;;;;;11.52;72.44;98414.53;4954163;28;20109;-59
2022/04/07 05:17:19;;;;;;;10.55;2.28;;;;;;;11.55;72.15;98487.50;4955988;28;20579;-59
2022/04/07 05:19:45;;;;;;;6.38;1.33;;;;;;;11.31;69.95;98534.25;4956074;28;20069;-61
2022/04/07 05:22:11;;;;;;;8.27;1.50;;;;;;;10.80;66.54;98512.09;4946990;28;20561;-58
2022/04/07 05:24:36;;;;;;;9.02;1.10;;;;;;;10.02;65.21;98515.66;4956183;28;20541;-59
2022/04/07 05:27:02;;;;;;;7.05;1.10;;;;;;;9.68;66.30;98511.19;4957434;28;20031;-59
2022/04/07 05:29:27;;;;;;;4.38;0.80;;;;;;;9.41;67.67;98513.47;4957335;28;20053;-59
2022/04/07 05:31:53;;;;;;;7.15;1.17;;;;;;;9.11;68.65;98527.91;4947590;28;20055;-59
2022/04/07 05:34:18;;;;;;;7.63;1.30;;;;;;;8.95;69.66;98524.75;4949318;28;20042;-58
2022/04/07 05:36:44;;;;;;;7.85;1.20;;;;;;;8.85;69.73;98529.22;4956358;28;20588;-60
2022/04/07 05:39:09;;;;;;;8.13;1.10;;;;;;;8.75;70.38;98530.28;4954454;28;20666;-58
2022/04/07 05:41:35;;;;;;;10.88;1.52;;;;;;;8.73;70.73;98528.56;4945853;28;20033;-59
2022/04/07 05:44:00;;;;;;;24.50;1.58;;;;;;;8.71;70.90;98522.56;4938569;28;20474;-59
2022/04/07 05:46:25;;;;;;;10.70;1.65;;;;;;;8.69;71.50;98529.53;4955790;28;20096;-59
2022/04/07 05:48:51;;;;;;;10.05;1.60;;;;;;;8.66;71.76;98521.78;4952708;28;21343;-56
2022/04/07 05:51:16;;;;;;;11.48;1.73;;;;;;;8.74;72.11;98514.72;4954379;28;20168;-59
2022/04/07 05:53:41;;;;;;;12.77;1.90;;;;;;;8.83;71.67;98509.38;4951881;28;20806;-59
2022/04/07 05:56:07;;;;;;;12.40;1.48;;;;;;;8.89;71.69;98509.25;4939323;28;20378;-60
2022/04/07 05:58:32;;;;;;;12.20;1.80;;;;;;;8.93;72.30;98518.72;4947791;28;20489;-59
2022/04/07 06:00:57;;;;;;;12.40;1.60;;;;;;;9.03;71.84;98504.66;4953697;28;20520;-59
2022/04/07 06:03:23;;;;;;;12.75;1.85;;;;;;;9.07;72.34;98508.06;4944605;28;20144;-59
2022/04/07 06:05:52;;;;;;;13.32;1.52;;;;;;;9.21;71.63;98513.88;4961497;28;20109;-60
2022/04/07 06:08:19;;;;;;;13.48;1.55;;;;;;;9.00;72.14;98509.06;4945290;28;22443;-58
2022/04/07 06:10:45;;;;;;;10.73;1.33;;;;;;;9.07;72.08;98493.34;4954534;28;20034;-59
2022/04/07 06:13:11;;;;;;;10.35;1.17;;;;;;;9.15;72.16;98494.03;4945702;28;20045;-59
2022/04/07 06:15:39;;;;;;;12.98;1.25;;;;;;;9.20;71.94;98479.22;4949716;28;20429;-58
2022/04/07 06:18:08;;;;;;;14.30;1.42;;;;;;;9.12;71.59;98457.72;4928829;28;20128;-57
2022/04/07 06:20:34;;;;;;;4.90;1.00;;;;;;;9.17;70.72;98447.22;4966311;28;20379;-55
2022/04/07 06:23:02;;;;;;;9.05;1.58;;;;;;;9.04;70.94;98428.41;4951457;28;20121;-56
2022/04/07 06:25:27;;;;;;;5.72;1.10;;;;;;;9.09;71.02;98436.13;4954292;28;20886;-57
2022/04/07 06:27:53;;;;;;;10.02;1.33;;;;;;;9.16;71.10;98432.50;4944204;28;20378;-57
2022/04/07 06:30:20;;;;;;;5.70;1.00;;;;;;;9.18;71.36;98436.81;4948994;28;20597;-58
2022/04/07 06:32:47;;;;;;;9.75;1.20;;;;;;;9.19;71.17;98435.91;4955923;28;20153;-58
2022/04/07 06:35:15;;;;;;;6.13;1.02;;;;;;;9.18;71.04;98430.75;4955744;28;20043;-60
2022/04/07 06:37:55;;;;;;;6.38;1.10;;;;;;;9.21;70.90;98421.13;4952517;28;20405;-59
2022/04/07 06:40:25;;;;;;;5.53;1.20;;;;;;;9.21;70.95;98409.91;4920652;28;20447;-58
2022/04/07 06:42:52;;;;;;;8.90;1.02;;;;;;;9.22;70.77;98411.59;4951023;28;20793;-58
2022/04/07 06:45:18;;;;;;;4.97;1.02;;;;;;;9.26;70.75;98408.91;4954716;28;20517;-59
2022/04/07 06:47:44;;;;;;;8.20;1.10;;;;;;;9.30;70.93;98412.31;4953972;28;20049;-60
2022/04/07 06:50:11;;;;;;;14.27;1.40;;;;;;;9.22;70.83;98411.59;4932745;28;20520;-58
2022/04/07 06:52:37;;;;;;;4.38;1.20;;;;;;;9.22;70.34;98381.25;4948359;28;20082;-58
2022/04/07 06:55:04;;;;;;;6.43;1.00;;;;;;;9.19;70.67;98375.28;4957104;28;20094;-56
2022/04/07 06:57:31;;;;;;;9.02;1.25;;;;;;;9.19;70.54;98377.88;4950051;28;20517;-59
2022/04/07 06:59:56;;;;;;;7.80;1.25;;;;;;;9.15;70.68;98368.44;4958714;28;20084;-59
2022/04/07 07:02:22;;;;;;;3.50;1.02;;;;;;;9.23;71.12;98364.78;4953947;28;20596;-58
2022/04/07 07:04:48;;;;;;;7.13;1.00;;;;;;;9.29;70.44;98366.38;4952695;28;20515;-59
2022/04/07 07:07:13;;;;;;;4.90;1.10;;;;;;;9.29;70.27;98356.84;4958442;28;20085;-59
2022/04/07 07:09:39;;;;;;;7.18;1.10;;;;;;;9.27;70.49;98355.19;4957735;28;21070;-58
2022/04/07 07:12:04;;;;;;;6.32;1.05;;;;;;;9.32;70.94;98325.59;4937346;28;20043;-59
2022/04/07 07:14:30;;;;;;;6.47;1.13;;;;;;;9.30;71.31;98321.31;4954312;28;20597;-60
2022/04/07 07:16:55;;;;;;;5.65;0.98;;;;;;;9.22;71.83;98300.66;4955058;28;20471;-58
2022/04/07 07:19:28;;;;;;;4.80;1.10;;;;;;;9.41;71.34;98289.84;4957298;28;20148;-58
2022/04/07 07:21:53;;;;;;;5.53;1.25;;;;;;;9.49;71.47;98298.34;4953606;28;20093;-59
2022/04/07 07:24:19;;;;;;;6.38;1.10;;;;;;;9.58;70.96;98305.91;4945880;28;20774;-60
2022/04/07 07:26:45;;;;;;;4.57;0.98;;;;;;;9.69;71.52;98297.00;4953209;28;20055;-58
2022/04/07 07:29:11;;;;;;;8.75;1.00;;;;;;;9.90;70.83;98284.31;4952566;28;20050;-59
2022/04/07 07:31:36;;;;;;;6.80;1.17;;;;;;;9.81;70.97;98274.16;4951754;28;20081;-59
2022/04/07 07:34:03;;;;;;;9.68;0.98;;;;;;;10.06;70.83;98272.66;4953785;28;20181;-59
2022/04/07 07:36:29;;;;;;;8.60;1.27;;;;;;;9.98;70.33;98258.97;4946206;28;20042;-59
2022/04/07 07:38:55;;;;;;;9.45;1.20;;;;;;;10.38;70.51;98285.69;4942849;28;20050;-59
2022/04/07 07:41:20;;;;;;;6.28;1.10;;;;;;;10.75;70.08;98276.84;4955355;28;21357;-58
2022/04/07 07:43:45;;;;;;;7.88;1.13;;;;;;;11.08;68.97;98282.81;4952418;28;20211;-58
2022/04/07 07:46:11;;;;;;;6.75;1.27;;;;;;;11.62;67.21;98285.47;4950365;28;20392;-59
2022/04/07 07:48:36;;;;;;;7.63;1.20;;;;;;;11.92;64.96;98278.44;4952977;28;20757;-58
2022/04/07 07:51:01;;;;;;;11.25;1.30;;;;;;;12.48;63.40;98281.72;4947898;28;20532;-59
2022/04/07 07:53:27;;;;;;;8.38;1.40;;;;;;;12.86;62.50;98278.56;4952851;28;20603;-59
2022/04/07 07:55:54;;;;;;;8.20;1.15;;;;;;;13.06;62.62;98283.03;4944441;28;20055;-57
2022/04/07 07:58:20;;;;;;;6.88;1.00;;;;;;;12.87;62.15;98284.63;4942457;28;20054;-58
2022/04/07 08:00:46;;;;;;;7.15;1.17;;;;;;;12.92;61.95;98277.50;4957859;28;20837;-59
2022/04/07 08:03:11;;;;;;;8.25;1.40;;;;;;;13.04;62.35;98263.94;4948988;28;20336;-59
2022/04/07 08:05:36;;;;;;;7.13;1.33;;;;;;;13.18;61.22;98274.75;4953481;28;20161;-58
2022/04/07 08:08:02;;;;;;;6.57;1.30;;;;;;;13.21;61.32;98274.66;4946951;28;20046;-59
2022/04/07 08:10:27;;;;;;;6.18;1.00;;;;;;;13.16;60.66;98270.50;4954838;28;20059;-58
2022/04/07 08:12:53;;;;;;;9.27;1.27;;;;;;;13.20;60.64;98285.16;4946156;28;20054;-59
2022/04/07 08:15:19;;;;;;;6.72;1.40;;;;;;;13.35;61.30;98281.97;4951940;28;20046;-59
2022/04/07 08:17:44;;;;;;;8.70;1.50;;;;;;;13.61;60.27;98273.06;4956826;28;20117;-60
2022/04/07 08:20:17;;;;;;;10.20;1.60;;;;;;;13.67;58.70;98271.06;4949704;28;20056;-60
2022/04/07 08:22:43;;;;;;;8.25;1.55;;;;;;;13.72;59.00;98273.50;4954726;28;20042;-58
2022/04/07 08:25:09;;;;;;;12.07;1.73;;;;;;;13.61;59.16;98265.22;4941709;28;20046;-60
2022/04/07 08:27:34;;;;;;;7.63;1.50;;;;;;;13.88;58.58;98271.97;4948214;28;20207;-60
2022/04/07 08:30:01;;;;;;;8.20;1.50;;;;;;;13.68;58.72;98272.75;4944804;28;20042;-59
2022/04/07 08:32:26;;;;;;;8.75;2.00;;;;;;;13.58;57.58;98275.81;4965990;28;20049;-59
2022/04/07 08:34:52;;;;;;;12.10;1.63;;;;;;;13.37;58.07;98273.13;4939148;28;20580;-58
2022/04/07 08:37:18;;;;;;;8.27;1.73;;;;;;;13.20;56.17;98278.16;4951531;28;20319;-59
2022/04/07 08:39:43;;;;;;;14.30;1.73;;;;;;;13.10;57.66;98262.88;4937035;28;20046;-59
2022/04/07 08:42:09;;;;;;;9.60;1.80;;;;;;;13.06;58.35;98279.56;4960132;28;20140;-59
2022/04/07 08:44:34;;;;;;;11.95;1.77;;;;;;;13.35;56.64;98281.97;4952519;28;20230;-58
2022/04/07 08:47:01;;;;;;;8.43;1.75;;;;;;;13.21;54.74;98292.97;4950011;28;20053;-59
2022/04/07 08:49:31;;;;;;;8.30;1.50;;;;;;;13.11;55.19;98290.72;4943355;28;20053;-59
2022/04/07 08:51:57;;;;;;;14.07;2.20;;;;;;;13.08;55.84;98307.38;4948681;28;20069;-58
2022/04/07 08:54:23;;;;;;;11.93;2.00;;;;;;;13.28;55.82;98290.97;4938829;28;20970;-58
2022/04/07 08:56:49;;;;;;;13.55;1.90;;;;;;;13.44;54.70;98305.16;4954482;28;20121;-60
2022/04/07 08:59:15;;;;;;;8.35;1.65;;;;;;;13.65;53.65;98287.75;4955687;28;20046;-59
2022/04/07 09:01:42;;;;;;;11.85;1.95;;;;;;;13.96;53.21;98295.22;4947266;28;20646;-60
2022/04/07 09:04:10;;;;;;;10.23;1.83;;;;;;;13.97;53.06;98291.66;4946315;28;20069;-59
2022/04/07 09:06:37;;;;;;;13.13;2.00;;;;;;;14.07;52.57;98295.63;4950110;28;20215;-59
2022/04/07 09:09:18;;;;;;;9.73;1.65;;;;;;;13.75;52.28;98300.41;4940595;28;20624;-60
2022/04/07 09:11:43;;;;;;;16.83;2.00;;;;;;;13.79;52.85;98304.59;4947266;28;20180;-59
2022/04/07 09:14:10;;;;;;;11.55;1.75;;;;;;;13.90;52.72;98290.25;4949281;28;20038;-59
2022/04/07 09:16:38;;;;;;;9.80;1.55;;;;;;;13.94;53.05;98290.03;4948842;28;20280;-59
2022/04/07 09:19:04;;;;;;;12.45;1.75;;;;;;;13.97;52.57;98304.75;4949717;28;20038;-59
2022/04/07 09:21:31;;;;;;;8.10;1.58;;;;;;;14.06;52.58;98315.72;4938045;28;20174;-59
2022/04/07 09:23:58;;;;;;;10.60;1.90;;;;;;;14.16;51.91;98324.03;4954638;28;20467;-58
2022/04/07 09:26:24;;;;;;;9.10;1.60;;;;;;;13.92;51.42;98310.19;4947819;28;20038;-59
2022/04/07 09:28:54;;;;;;;11.93;1.50;;;;;;;14.25;51.47;98325.44;4935525;28;20058;-57
2022/04/07 09:31:22;;;;;;;12.38;1.67;;;;;;;14.29;51.75;98319.16;4940046;28;20207;-57
2022/04/07 09:33:53;;;;;;;9.85;1.70;;;;;;;14.11;51.18;98336.50;4953821;28;20042;-59
2022/04/07 09:36:21;;;;;;;11.95;1.75;;;;;;;14.09;49.92;98323.44;4946642;28;20062;-60
2022/04/07 09:38:54;;;;;;;17.13;1.90;;;;;;;13.89;51.02;98333.06;4952262;28;20089;-59
2022/04/07 09:41:21;;;;;;;12.20;2.08;;;;;;;13.67;51.94;98343.50;4941213;28;20788;-59
2022/04/07 09:43:49;;;;;;;16.65;2.40;;;;;;;13.73;51.06;98335.41;4952791;28;20137;-58
2022/04/07 09:46:20;;;;;;;14.27;2.30;;;;;;;13.70;52.46;98341.63;4937879;28;20412;-59
2022/04/07 09:49:05;;;;;;;10.75;2.13;;;;;;;13.47;52.27;98340.84;4951423;28;20057;-59
2022/04/07 09:51:45;;;;;;;15.75;2.20;;;;;;;13.60;52.30;98355.16;4951918;28;20463;-59
2022/04/07 09:54:11;;;;;;;11.82;2.42;;;;;;;13.54;52.38;98353.59;4946168;28;20038;-58
2022/04/07 09:56:37;;;;;;;10.13;2.25;;;;;;;13.39;53.00;98369.91;4947905;28;20051;-58
2022/04/07 09:59:07;;;;;;;15.23;3.00;;;;;;;13.23;52.48;98366.16;4955457;28;20486;-59
2022/04/07 10:01:34;;;;;;;14.88;2.97;;;;;;;13.16;51.70;98360.31;4957433;28;20386;-58
2022/04/07 10:04:02;;;;;;;13.35;2.50;;;;;;;13.12;52.23;98348.22;4944923;28;20101;-59
2022/04/07 10:06:29;;;;;;;16.25;2.47;;;;;;;13.28;51.54;98364.22;4952897;28;20145;-59
2022/04/07 10:08:58;;;;;;;16.80;2.72;;;;;;;13.38;51.27;98357.72;4948306;28;20126;-59
2022/04/07 10:11:29;;;;;;;17.10;2.70;;;;;;;13.38;50.87;98352.50;4951710;28;20046;-59
2022/04/07 10:13:56;;;;;;;15.63;2.50;;;;;;;13.28;51.10;98364.22;4935329;28;20050;-58
2022/04/07 10:16:22;;;;;;;19.55;2.50;;;;;;;13.29;51.04;98365.94;4945369;28;20046;-59
2022/04/07 10:18:56;;;;;;;18.88;3.03;;;;;;;13.10;51.00;98370.13;4940158;28;20042;-59
2022/04/07 10:21:46;;;;;;;15.43;2.58;;;;;;;13.28;50.74;98388.63;4950009;28;20078;-59
2022/04/07 10:24:34;;;;;;;15.13;2.47;;;;;;;13.37;50.36;98361.25;4944712;28;20057;-59
2022/04/07 10:27:02;;;;;;;19.30;2.75;;;;;;;13.67;50.65;98374.94;4956465;28;20166;-58
2022/04/07 10:29:29;;;;;;;20.13;2.85;;;;;;;13.79;49.81;98377.06;4949209;28;20452;-59
2022/04/07 10:32:13;;;;;;;20.45;2.65;;;;;;;13.86;49.77;98372.44;4945549;28;20385;-58
2022/04/07 10:34:42;;;;;;;17.15;2.67;;;;;;;13.99;49.76;98368.44;4947146;28;20382;-60
2022/04/07 10:37:09;;;;;;;15.70;2.95;;;;;;;14.16;49.06;98369.44;4947267;28;20046;-60
2022/04/07 10:39:35;;;;;;;16.48;2.67;;;;;;;13.93;49.08;98366.06;4952684;28;20048;-61
2022/04/07 10:42:01;;;;;;;18.45;2.97;;;;;;;13.66;49.34;98374.06;4932212;28;20179;-59
2022/04/07 10:44:27;;;;;;;22.80;3.20;;;;;;;13.76;49.29;98371.97;4954619;28;20042;-60
2022/04/07 10:47:07;;;;;;;19.55;2.65;;;;;;;13.98;49.48;98396.38;4938213;28;20034;-59
2022/04/07 10:49:33;;;;;;;19.42;2.95;;;;;;;13.87;50.19;98356.69;4951037;28;20508;-59
2022/04/07 10:52:02;;;;;;;16.17;2.88;;;;;;;13.91;48.70;98376.59;4942819;28;20639;-61
2022/04/07 10:54:28;;;;;;;18.35;2.92;;;;;;;14.25;48.34;98406.69;4948280;28;20054;-60
2022/04/07 10:57:00;;;;;;;17.23;2.90;;;;;;;14.36;48.42;98400.09;4950616;28;20957;-59
2022/04/07 10:59:31;;;;;;;16.52;3.03;;;;;;;14.58;47.84;98389.56;4943196;28;20640;-59
2022/04/07 11:01:58;;;;;;;15.15;3.13;;;;;;;14.66;48.01;98408.47;4947411;28;20042;-57
2022/04/07 11:04:24;;;;;;;16.98;2.83;;;;;;;14.85;46.90;98395.41;4946536;28;20161;-57
2022/04/07 11:07:17;;;;;;;18.42;2.90;;;;;;;14.89;47.42;98386.50;4952299;28;20494;-59
2022/04/07 11:09:52;;;;;;;17.15;2.60;;;;;;;14.89;47.03;98368.13;4955174;28;20057;-57
2022/04/07 11:12:22;;;;;;;21.02;2.95;;;;;;;14.75;47.10;98409.88;4935841;28;20050;-57
2022/04/07 11:14:50;;;;;;;18.38;3.20;;;;;;;14.46;47.02;98388.31;4946026;28;20050;-59
2022/04/07 11:17:34;;;;;;;12.98;2.88;;;;;;;14.15;47.74;98400.94;4945625;28;20050;-57
2022/04/07 11:20:05;;;;;;;15.02;2.65;;;;;;;14.61;47.59;98405.19;4950493;28;20070;-57
2022/04/07 11:22:52;;;;;;;17.17;2.60;;;;;;;14.58;46.76;98407.94;4954522;28;20463;-57
2022/04/07 11:25:28;;;;;;;17.48;3.17;;;;;;;14.93;46.29;98401.19;4935190;28;20469;-57
2022/04/07 11:28:17;;;;;;;18.00;2.88;;;;;;;14.90;45.80;98412.66;4949236;28;20042;-57